Historyczne dane pomiarowe

Dodano dane terminowe – wersja testowa.

Dane z okresu 1951-2019

Wersja bazy: 1.34 [2019-03-16, lista zmian], aktualizacja planowana na 2019-04-15

Dane meteo z obszaru Polski uzyskane na podstawie danych udostępnionych przez Instytut Meteorologii i Gospodarki Wodnej – Państwowy Instytut Badawczy.

 

Wybierz Datę:    

       

TemperaturaWilgotnośćWiatrCiśnienieOpadyŚniegCzas trwania zjawisk
 Stacja t tx tn tng RH VA  wxwx mslp ppp RRR   cm mm wxwxwxwxwxwxwx
1961-08-14 14.1 19.2 9.1 7.1-- 6.7 0.3---- 0.0------------
1961-08-13 14.3 17.1 11.6 10.4-- 7.3 1.0---- 0.0------------
1961-08-12 17.3 21.4 14.4 12.7-- 7.7 0.7---- 0.0------------
1961-08-11 15.9 18.1 14.7 15.4-- 6.7 0.7---- 12.1------------
1961-08-10 18.7 25.5 15.4 15.0-- 8.0 1.3---- 36.5------------
1961-08-09 19.3 25.4 16.4 14.4-- 6.0 0.7---- 5.7------------
1961-08-08 17.6 23.0 9.6 7.7-- 3.7 0.3---- 0.0------------
1961-08-07 16.4 21.5 14.4 14.2-- 5.3 0.0---- 5.7------------
1961-08-06 22.8 29.3 17.1 15.2-- 4.3 1.3---- 8.7------------
1961-08-05 18.8 23.7 14.8 13.6-- 4.0 1.3---- 0.0------------
1961-08-04 14.7 17.9 8.8 6.7-- 8.0 1.7---- 0.0------------
1961-08-03 13.3 18.9 11.3 8.8-- 6.0 2.3---- 0.0------------
1961-08-02 16.2 22.7 11.2 8.8-- 5.3 0.7---- 1.7------------
1961-08-01 13.3 18.4 11.0 10.2-- 5.3 3.0---- 2.8------------
1961-07-31 12.6 14.9 12.1 12.4-- 8.0 5.7---- 62.0------------
1961-07-30 14.7 17.9 11.5 10.2-- 8.0 1.0---- 5.3------------
1961-07-29 13.2 18.1 11.9 11.6-- 6.7 1.7---- 0.0------------
1961-07-28 15.2 19.1 13.8 13.7-- 8.0 1.3---- 8.3------------
1961-07-27 18.8 23.9 15.1 14.2-- 7.7 2.0---- 0.9------------
1961-07-26 17.7 22.5 13.1 11.6-- 8.0 1.0---- 0.0------------
1961-07-25 14.2 16.9 11.6 10.6-- 6.7 1.7---- 0.0------------
1961-07-24 13.8 17.1 11.1 9.8-- 7.3 1.7---- 0.0------------
1961-07-23 13.9 16.4 12.5 12.0-- 8.0 2.0---- 0.0------------
1961-07-22 15.3 19.7 13.3 12.7-- 7.0 2.0---- 5.0------------
1961-07-21 14.5 18.2 13.5 12.4-- 7.7 3.3---- 5.4------------
1961-07-20 15.5 21.4 11.0 8.8-- 6.7 0.3---- 2.3------------
1961-07-19 13.4 20.5 11.5 10.2-- 7.3 0.3---- 32.1------------
1961-07-18 14.5 19.2 11.6 11.5-- 7.7 2.7---- 0.0------------
1961-07-17 14.1 20.5 10.9 8.7-- 5.7 0.7---- 32.4------------
1961-07-16 14.1 20.0 13.2 11.9-- 8.0 1.0---- 8.4------------
1961-07-15 17.0 23.9 13.3 11.8-- 4.3 2.0---- 12.3------------
1961-07-14 14.0 17.9 13.3 12.7-- 7.3 4.0---- 0.0------------
1961-07-13 20.0 28.3 16.0 14.2-- 7.3 2.0---- 1.2------------
1961-07-12 19.5 26.3 14.2 12.6-- 3.3 1.7---- 24.2------------
1961-07-11 16.1 21.4 9.7 7.8-- 5.0 2.3---- 0.0------------
1961-07-10 12.7 18.3 11.0 9.8-- 5.7 3.3---- 1.9------------
1961-07-09 13.3 19.4 11.3 8.8-- 6.3 2.0---- 4.6------------
1961-07-08 16.2 22.1 10.1 7.7-- 5.3 0.7---- 0.0------------
1961-07-07 13.1 16.5 9.4 7.8-- 8.0 1.3---- 0.0------------
1961-07-06 11.2 14.1 7.7 6.6-- 7.3 2.3---- 12.7------------
1961-07-05 12.8 18.1 10.8 10.4-- 6.3 4.0---- 1.2------------
1961-07-04 16.4 24.0 13.8 12.6-- 6.0 2.0---- 3.1------------
1961-07-03 25.1 33.0 14.7 12.4-- 2.7 1.7---- 0.0------------
1961-07-02 22.9 30.5 10.6 8.6-- 0.0 0.3---- 0.0------------
1961-07-01 20.0 28.4 10.5 13.4-- 1.0 0.3---- 0.0------------
1961-06-30 19.8 27.1 10.6 13.5-- 0.0 1.0---- 0.0------------
1961-06-29 16.2 22.1 11.1 10.1-- 2.7 1.3---- 0.0------------
1961-06-28 15.0 22.3 13.4 13.4-- 4.0 3.3---- 0.2------------
1961-06-27 23.0 29.2 16.2 13.7-- 4.3 1.7---- 0.0------------
1961-06-26 21.8 28.9 14.2 11.7-- 1.0 1.0---- 0.0------------
1961-06-25 22.1 28.9 15.6 13.4-- 1.0 2.7---- 0.0------------
1961-06-24 19.3 23.9 13.0 11.2-- 6.3 2.7---- 0.0------------
1961-06-23 18.4 22.9 15.0 13.1-- 5.0 3.0---- 0.0------------
1961-06-22 17.2 22.9 6.7 5.0-- 2.3 1.0---- 0.9------------
1961-06-21 17.7 22.5 7.8 5.8-- 5.0 0.7---- 1.7------------
1961-06-20 14.1 20.5 9.0 7.4-- 2.3 0.7---- 0.0------------
1961-06-19 16.0 21.4 14.0 14.7-- 4.7 2.3---- 0.0------------
1961-06-18 21.5 27.4 15.2 12.7-- 3.0 2.3---- 0.2------------
1961-06-17 18.3 23.1 9.8 7.8-- 7.3 2.7---- 0.0------------
1961-06-16 12.4 18.9 9.8 9.6-- 8.0 1.7---- 0.0------------
2091.6 ms

 

Źródłem pochodzenia danych jest Instytut Meteorologii i Gospodarki Wodnej – Państwowy Instytut Badawczy. Dane Instytutu Meteorologii i Gospodarki Wodnej – Państwowego Instytutu Badawczego zostały przetworzone.

Dane źródłowe można odnaleźć na stronie https://dane.imgw.pl